This is the latest recevied weather packets stored in our database for station/object SV9TNF-4. If no packets are shown the sender has not sent any weather packets the latest 10 day(s).
| Time | Temp. | Humidity | Pressure | Rain* | Wind** | Luminosity | Snow |
|---|---|---|---|---|---|---|---|
| 1777767962 | 13.33° C | 54% | 1014.9 hPa | 0 mm | 22.35 m/s, 60° | - | - |
| 1777767662 | 13.33° C | 54% | 1014.9 hPa | 0 mm | 22.35 m/s, 60° | - | - |
| 1777767362 | 13.33° C | 54% | 1014.9 hPa | 0 mm | 22.35 m/s, 60° | - | - |
| 1777767062 | 13.33° C | 55% | 1014.9 hPa | 0 mm | 27.27 m/s, 350° | - | - |
| 1777766762 | 13.33° C | 55% | 1014.9 hPa | 0 mm | 27.27 m/s, 350° | - | - |
| 1777766461 | 13.33° C | 55% | 1014.9 hPa | 0 mm | 27.27 m/s, 350° | - | - |
| 1777766162 | 12.78° C | 57% | 1014.9 hPa | 0 mm | 22.35 m/s, 36° | - | - |
| 1777765862 | 12.78° C | 57% | 1014.9 hPa | 0 mm | 22.35 m/s, 36° | - | - |
| 1777765561 | 12.78° C | 57% | 1014.9 hPa | 0 mm | 22.35 m/s, 36° | - | - |
| 1777765261 | 12.78° C | 56% | 1015.2 hPa | 0 mm | 24.14 m/s, 334° | - | - |
| 1777764661 | 12.78° C | 56% | 1015.2 hPa | 0 mm | 24.14 m/s, 334° | - | - |
| 1777764361 | 12.78° C | 56% | 1015.2 hPa | 0 mm | 14.31 m/s, 339° | - | - |
| 1777764061 | 12.78° C | 56% | 1015.2 hPa | 0 mm | 14.31 m/s, 339° | - | - |
| 1777763761 | 12.78° C | 56% | 1015.2 hPa | 0 mm | 14.31 m/s, 339° | - | - |
| 1777763161 | 12.78° C | 56% | 1015.6 hPa | 0 mm | 9.83 m/s, 315° | - | - |
| 1777762861 | 12.78° C | 56% | 1015.6 hPa | 0 mm | 9.83 m/s, 315° | - | - |
| 1777762560 | 13.33° C | 57% | 1015.6 hPa | 0 mm | 21.01 m/s, 340° | - | - |
| 1777762260 | 13.33° C | 57% | 1015.6 hPa | 0 mm | 21.01 m/s, 340° | - | - |
| 1777761960 | 13.33° C | 57% | 1015.6 hPa | 0 mm | 21.01 m/s, 340° | - | - |
| 1777760759 | 13.33° C | 55% | 1015.2 hPa | 0 mm | 11.18 m/s, 11° | - | - |
| 1777760460 | 13.33° C | 55% | 1015.2 hPa | 0 mm | 11.18 m/s, 11° | - | - |
| 1777760160 | 13.33° C | 55% | 1015.2 hPa | 0 mm | 11.18 m/s, 11° | - | - |
| 1777759859 | 13.33° C | 55% | 1015.2 hPa | 0 mm | 11.18 m/s, 11° | - | - |
| 1777759559 | 13.33° C | 55% | 1015.2 hPa | 0 mm | 11.18 m/s, 11° | - | - |
| 1777759259 | 13.33° C | 55% | 1015.2 hPa | 0 mm | 11.18 m/s, 11° | - | - |
* Rain latest hour (hover to see other rain measurements)
** Current wind speed in m/s (hover to see current wind gust speed)